Terminal Aerodrome Forecast
Issued by NWS

Home | Current Version | Previous Version | Graphics & Text | Print | Product List | Glossary On
Versions: 1 2 3 4 5 6 7 8 9 10 11 12 13 14 15
675
FTUS43 KPAH 221720
TAFCGI
TAF
KCGI 221720Z 2218/2318 26009KT P6SM VCTS BKN035CB
     FM222200 31008KT P6SM BKN025
     FM230100 33005KT P6SM BKN200
     FM231000 01005KT P6SM SCT250=

USA.gov is the U.S. government's official web portal to all federal, state and local government web resources and services.